Litchfield, Maine
Current Conditions -  °F | °C
As of 7:53 PM on Wednesday 22 Oct 2014 (Local Time) from KAUG Reporting Station
Overcast Overcast  
Wind Chill: 37°   Ceiling: 1000
Heat Index: 45°   Visibility: 10mi
Dew Point: 42°   Wind: 18mph
Humidity: 90%   Direction: 20°NNE
Pressure: 30.1"   Gusts: 30mph
Location:  44.22°N, 69.94°W
Report Text: KAUG 222353Z AUTO 02016G26KT 10SM OVC010 07/06 A3010 RMK AO2 PK WND 04029/2337 SLP196 60017 T00720056 10083 20072 58006
Loading
Personal Weather Stations






























Interactive Weather Map
Tropical Storm Tracking
New forecast layout! Learn more

10-Day Weather Forecast

Advertisements
Track Severe Weather on mobile